sensor_id;sensor_type;location;lat;lon;timestamp;pressure;altitude;pressure_sealevel;temperature;humidity
2841;BME280;53423;49.224;12.074;2023-05-07T00:01:43;97776.22;;;13.99;63.59
2841;BME280;53423;49.224;12.074;2023-05-07T00:04:11;97779.94;;;13.90;63.74
2841;BME280;53423;49.224;12.074;2023-05-07T00:06:41;97779.47;;;13.86;63.09
2841;BME280;53423;49.224;12.074;2023-05-07T00:09:10;97776.94;;;13.78;63.99
2841;BME280;53423;49.224;12.074;2023-05-07T00:11:38;97782.03;;;13.80;64.11
2841;BME280;53423;49.224;12.074;2023-05-07T00:14:06;97788.41;;;13.70;63.94
2841;BME280;53423;49.224;12.074;2023-05-07T00:16:34;97783.31;;;13.69;63.66
2841;BME280;53423;49.224;12.074;2023-05-07T00:19:03;97784.38;;;13.45;64.04
2841;BME280;53423;49.224;12.074;2023-05-07T00:21:31;97790.31;;;13.62;64.38
2841;BME280;53423;49.224;12.074;2023-05-07T00:24:00;97780.41;;;13.64;63.69
2841;BME280;53423;49.224;12.074;2023-05-07T00:26:28;97788.31;;;13.64;63.61
2841;BME280;53423;49.224;12.074;2023-05-07T00:28:56;97791.84;;;13.71;63.65
2841;BME280;53423;49.224;12.074;2023-05-07T00:31:24;97789.31;;;13.78;63.96
2841;BME280;53423;49.224;12.074;2023-05-07T00:33:52;97799.66;;;13.79;63.98
2841;BME280;53423;49.224;12.074;2023-05-07T00:36:20;97783.47;;;13.97;63.77
2841;BME280;53423;49.224;12.074;2023-05-07T00:38:48;97783.75;;;14.02;63.08
2841;BME280;53423;49.224;12.074;2023-05-07T00:41:17;97790.94;;;14.08;62.99
2841;BME280;53423;49.224;12.074;2023-05-07T00:43:45;97791.56;;;14.10;62.82
2841;BME280;53423;49.224;12.074;2023-05-07T00:46:14;97787.28;;;14.09;63.25
2841;BME280;53423;49.224;12.074;2023-05-07T00:48:43;97790.94;;;14.08;63.12
2841;BME280;53423;49.224;12.074;2023-05-07T00:51:11;97788.84;;;14.03;62.98
2841;BME280;53423;49.224;12.074;2023-05-07T00:53:39;97790.47;;;14.04;63.15
2841;BME280;53423;49.224;12.074;2023-05-07T00:56:07;97789.66;;;14.04;62.77
2841;BME280;53423;49.224;12.074;2023-05-07T00:58:36;97789.94;;;13.94;63.37
2841;BME280;53423;49.224;12.074;2023-05-07T01:01:05;97792.22;;;13.97;63.20
2841;BME280;53423;49.224;12.074;2023-05-07T01:03:33;97789.75;;;13.96;63.34
2841;BME280;53423;49.224;12.074;2023-05-07T01:06:01;97791.31;;;13.90;63.58
2841;BME280;53423;49.224;12.074;2023-05-07T01:08:30;97801.28;;;13.95;63.24
2841;BME280;53423;49.224;12.074;2023-05-07T01:10:59;97797.59;;;13.89;63.83
2841;BME280;53423;49.224;12.074;2023-05-07T01:13:28;97793.28;;;13.88;64.28
2841;BME280;53423;49.224;12.074;2023-05-07T01:15:58;97784.38;;;13.74;63.96
2841;BME280;53423;49.224;12.074;2023-05-07T01:18:26;97787.47;;;13.78;64.31
2841;BME280;53423;49.224;12.074;2023-05-07T01:20:58;97789.19;;;13.71;64.56
2841;BME280;53423;49.224;12.074;2023-05-07T01:23:29;97790.41;;;13.68;64.23
2841;BME280;53423;49.224;12.074;2023-05-07T01:25:58;97797.75;;;13.58;65.12
2841;BME280;53423;49.224;12.074;2023-05-07T01:28:26;97794.75;;;13.61;65.03
2841;BME280;53423;49.224;12.074;2023-05-07T01:30:56;97790.53;;;13.52;64.90
2841;BME280;53423;49.224;12.074;2023-05-07T01:33:28;97792.47;;;13.58;64.70
2841;BME280;53423;49.224;12.074;2023-05-07T01:35:58;97790.66;;;13.59;64.73
2841;BME280;53423;49.224;12.074;2023-05-07T01:38:30;97788.75;;;13.53;65.00
2841;BME280;53423;49.224;12.074;2023-05-07T01:40:58;97791.09;;;13.48;65.18
2841;BME280;53423;49.224;12.074;2023-05-07T01:43:26;97787.34;;;13.42;65.71
2841;BME280;53423;49.224;12.074;2023-05-07T01:45:57;97787.31;;;13.50;65.30
2841;BME280;53423;49.224;12.074;2023-05-07T01:48:25;97789.19;;;13.42;65.38
2841;BME280;53423;49.224;12.074;2023-05-07T01:50:54;97795.78;;;13.23;66.83
2841;BME280;53423;49.224;12.074;2023-05-07T01:53:22;97789.16;;;13.27;66.84
2841;BME280;53423;49.224;12.074;2023-05-07T01:55:52;97793.78;;;13.25;65.90
2841;BME280;53423;49.224;12.074;2023-05-07T01:58:20;97787.69;;;13.25;65.92
2841;BME280;53423;49.224;12.074;2023-05-07T02:00:47;97786.34;;;13.29;66.10
2841;BME280;53423;49.224;12.074;2023-05-07T02:03:15;97791.25;;;13.32;66.29
2841;BME280;53423;49.224;12.074;2023-05-07T02:05:43;97790.81;;;13.28;65.38
2841;BME280;53423;49.224;12.074;2023-05-07T02:08:11;97788.84;;;13.22;66.10
2841;BME280;53423;49.224;12.074;2023-05-07T02:10:39;97787.13;;;13.15;66.38
2841;BME280;53423;49.224;12.074;2023-05-07T02:13:08;97785.19;;;13.09;67.17
2841;BME280;53423;49.224;12.074;2023-05-07T02:15:36;97791.75;;;13.13;67.39
2841;BME280;53423;49.224;12.074;2023-05-07T02:18:06;97790.94;;;13.12;67.38
2841;BME280;53423;49.224;12.074;2023-05-07T02:20:34;97787.13;;;13.15;67.18
2841;BME280;53423;49.224;12.074;2023-05-07T02:23:02;97785.38;;;13.07;67.26
2841;BME280;53423;49.224;12.074;2023-05-07T02:25:30;97790.06;;;13.20;66.13
2841;BME280;53423;49.224;12.074;2023-05-07T02:27:58;97789.41;;;13.18;66.20
2841;BME280;53423;49.224;12.074;2023-05-07T02:30:28;97792.75;;;13.12;65.82
2841;BME280;53423;49.224;12.074;2023-05-07T02:32:56;97802.53;;;13.03;66.65
2841;BME280;53423;49.224;12.074;2023-05-07T02:35:24;97797.56;;;13.08;66.39
2841;BME280;53423;49.224;12.074;2023-05-07T02:37:52;97792.09;;;13.10;65.67
2841;BME280;53423;49.224;12.074;2023-05-07T02:40:20;97790.31;;;13.10;66.68
2841;BME280;53423;49.224;12.074;2023-05-07T02:42:48;97785.03;;;13.10;65.97
2841;BME280;53423;49.224;12.074;2023-05-07T02:45:16;97783.47;;;13.01;66.36
2841;BME280;53423;49.224;12.074;2023-05-07T02:47:45;97780.97;;;13.00;67.29
2841;BME280;53423;49.224;12.074;2023-05-07T02:50:14;97784.38;;;12.86;67.05
2841;BME280;53423;49.224;12.074;2023-05-07T02:52:42;97779.56;;;12.89;67.13
2841;BME280;53423;49.224;12.074;2023-05-07T02:55:10;97777.78;;;12.90;67.51
2841;BME280;53423;49.224;12.074;2023-05-07T02:57:38;97773.19;;;12.84;67.41
2841;BME280;53423;49.224;12.074;2023-05-07T03:00:13;97767.34;;;12.96;67.14
2841;BME280;53423;49.224;12.074;2023-05-07T03:02:42;97772.81;;;12.95;67.69
2841;BME280;53423;49.224;12.074;2023-05-07T03:05:11;97768.50;;;13.02;67.21
2841;BME280;53423;49.224;12.074;2023-05-07T03:07:40;97766.53;;;12.96;66.76
2841;BME280;53423;49.224;12.074;2023-05-07T03:10:11;97770.63;;;12.98;66.64
2841;BME280;53423;49.224;12.074;2023-05-07T03:12:39;97768.97;;;12.97;67.35
2841;BME280;53423;49.224;12.074;2023-05-07T03:15:09;97775.72;;;13.00;67.80
2841;BME280;53423;49.224;12.074;2023-05-07T03:17:37;97770.78;;;13.05;66.69
2841;BME280;53423;49.224;12.074;2023-05-07T03:20:06;97773.09;;;13.00;67.23
2841;BME280;53423;49.224;12.074;2023-05-07T03:22:36;97779.50;;;13.05;67.21
2841;BME280;53423;49.224;12.074;2023-05-07T03:25:04;97772.56;;;13.04;67.56
2841;BME280;53423;49.224;12.074;2023-05-07T03:27:32;97772.06;;;13.01;66.58
2841;BME280;53423;49.224;12.074;2023-05-07T03:30:00;97771.13;;;12.94;67.22
2841;BME280;53423;49.224;12.074;2023-05-07T03:32:28;97768.31;;;13.03;67.32
2841;BME280;53423;49.224;12.074;2023-05-07T03:34:56;97761.63;;;13.15;67.28
2841;BME280;53423;49.224;12.074;2023-05-07T03:37:24;97771.72;;;13.26;66.50
2841;BME280;53423;49.224;12.074;2023-05-07T03:39:53;97769.09;;;13.26;65.71
2841;BME280;53423;49.224;12.074;2023-05-07T03:42:21;97770.09;;;13.25;66.63
2841;BME280;53423;49.224;12.074;2023-05-07T03:44:49;97772.28;;;13.22;65.76
2841;BME280;53423;49.224;12.074;2023-05-07T03:47:17;97771.34;;;13.29;65.83
2841;BME280;53423;49.224;12.074;2023-05-07T03:49:45;97774.75;;;13.38;66.49
2841;BME280;53423;49.224;12.074;2023-05-07T03:52:12;97779.53;;;13.34;65.53
2841;BME280;53423;49.224;12.074;2023-05-07T03:54:41;97781.88;;;13.29;66.58
2841;BME280;53423;49.224;12.074;2023-05-07T03:57:10;97784.81;;;13.34;66.20
2841;BME280;53423;49.224;12.074;2023-05-07T03:59:38;97790.91;;;13.35;65.78
2841;BME280;53423;49.224;12.074;2023-05-07T04:02:06;97778.50;;;13.21;66.55
2841;BME280;53423;49.224;12.074;2023-05-07T04:04:34;97787.59;;;13.18;66.84
2841;BME280;53423;49.224;12.074;2023-05-07T04:07:02;97786.91;;;13.02;67.47
2841;BME280;53423;49.224;12.074;2023-05-07T04:09:30;97793.09;;;13.09;67.17
2841;BME280;53423;49.224;12.074;2023-05-07T04:11:58;97793.66;;;13.19;66.62
2841;BME280;53423;49.224;12.074;2023-05-07T04:14:29;97796.28;;;13.19;66.70
2841;BME280;53423;49.224;12.074;2023-05-07T04:16:58;97797.47;;;13.16;67.54
2841;BME280;53423;49.224;12.074;2023-05-07T04:19:26;97790.69;;;13.22;66.05
2841;BME280;53423;49.224;12.074;2023-05-07T04:21:54;97802.94;;;13.29;66.00
2841;BME280;53423;49.224;12.074;2023-05-07T04:24:22;97803.97;;;13.43;65.38
2841;BME280;53423;49.224;12.074;2023-05-07T04:26:50;97807.44;;;13.43;65.05
2841;BME280;53423;49.224;12.074;2023-05-07T04:29:19;97801.16;;;13.44;65.38
2841;BME280;53423;49.224;12.074;2023-05-07T04:31:48;97795.44;;;13.41;66.37
2841;BME280;53423;49.224;12.074;2023-05-07T04:34:16;97799.09;;;13.40;65.45
2841;BME280;53423;49.224;12.074;2023-05-07T04:36:44;97803.16;;;13.42;66.25
2841;BME280;53423;49.224;12.074;2023-05-07T04:39:12;97805.44;;;13.45;66.08
2841;BME280;53423;49.224;12.074;2023-05-07T04:41:40;97820.53;;;13.51;65.20
2841;BME280;53423;49.224;12.074;2023-05-07T04:44:08;97812.16;;;13.48;65.95
2841;BME280;53423;49.224;12.074;2023-05-07T04:46:37;97809.72;;;13.46;65.86
2841;BME280;53423;49.224;12.074;2023-05-07T04:49:06;97820.63;;;13.58;64.67
2841;BME280;53423;49.224;12.074;2023-05-07T04:51:34;97820.06;;;13.48;64.78
2841;BME280;53423;49.224;12.074;2023-05-07T04:54:02;97818.66;;;13.37;65.57
2841;BME280;53423;49.224;12.074;2023-05-07T04:56:30;97822.56;;;13.64;64.86
2841;BME280;53423;49.224;12.074;2023-05-07T04:58:58;97831.53;;;13.69;65.29
2841;BME280;53423;49.224;12.074;2023-05-07T05:01:26;97830.91;;;14.11;63.93
2841;BME280;53423;49.224;12.074;2023-05-07T05:03:54;97830.91;;;14.40;62.84
2841;BME280;53423;49.224;12.074;2023-05-07T05:06:23;97832.34;;;14.57;61.70
2841;BME280;53423;49.224;12.074;2023-05-07T05:08:51;97839.28;;;14.79;61.15
2841;BME280;53423;49.224;12.074;2023-05-07T05:11:19;97844.75;;;14.99;60.47
2841;BME280;53423;49.224;12.074;2023-05-07T05:13:47;97842.19;;;15.06;59.82
2841;BME280;53423;49.224;12.074;2023-05-07T05:16:16;97843.16;;;14.83;61.22
2841;BME280;53423;49.224;12.074;2023-05-07T05:18:44;97848.09;;;15.08;60.73
2841;BME280;53423;49.224;12.074;2023-05-07T05:21:11;97845.97;;;15.39;58.93
2841;BME280;53423;49.224;12.074;2023-05-07T05:23:41;97851.50;;;15.65;58.47
2841;BME280;53423;49.224;12.074;2023-05-07T05:26:09;97847.59;;;15.88;58.24
2841;BME280;53423;49.224;12.074;2023-05-07T05:28:36;97845.88;;;16.43;56.31
2841;BME280;53423;49.224;12.074;2023-05-07T05:31:05;97851.44;;;17.40;53.63
2841;BME280;53423;49.224;12.074;2023-05-07T05:33:33;97859.13;;;18.27;51.65
2841;BME280;53423;49.224;12.074;2023-05-07T05:36:01;97846.50;;;18.22;51.49
2841;BME280;53423;49.224;12.074;2023-05-07T05:38:28;97853.59;;;18.41;50.84
2841;BME280;53423;49.224;12.074;2023-05-07T05:40:58;97848.97;;;18.17;50.01
2841;BME280;53423;49.224;12.074;2023-05-07T05:43:26;97842.31;;;18.59;49.75
2841;BME280;53423;49.224;12.074;2023-05-07T05:45:55;97848.59;;;18.71;49.10
2841;BME280;53423;49.224;12.074;2023-05-07T05:48:23;97838.47;;;19.30;48.63
2841;BME280;53423;49.224;12.074;2023-05-07T05:50:51;97842.00;;;18.87;48.57
2841;BME280;53423;49.224;12.074;2023-05-07T05:53:19;97840.47;;;18.97;49.04
2841;BME280;53423;49.224;12.074;2023-05-07T05:55:48;97843.75;;;18.99;48.33
2841;BME280;53423;49.224;12.074;2023-05-07T05:58:17;97839.88;;;19.02;48.29
2841;BME280;53423;49.224;12.074;2023-05-07T06:00:46;97844.84;;;18.34;49.63
2841;BME280;53423;49.224;12.074;2023-05-07T06:03:14;97852.81;;;18.21;50.83
2841;BME280;53423;49.224;12.074;2023-05-07T06:05:42;97851.31;;;18.58;49.34
2841;BME280;53423;49.224;12.074;2023-05-07T06:08:10;97847.41;;;19.36;47.81
2841;BME280;53423;49.224;12.074;2023-05-07T06:10:38;97845.69;;;19.72;47.00
2841;BME280;53423;49.224;12.074;2023-05-07T06:13:07;97851.28;;;19.89;46.35
2841;BME280;53423;49.224;12.074;2023-05-07T06:15:37;97850.63;;;19.44;47.82
2841;BME280;53423;49.224;12.074;2023-05-07T06:18:04;97849.88;;;19.87;46.00
2841;BME280;53423;49.224;12.074;2023-05-07T06:20:32;97846.97;;;19.45;46.35
2841;BME280;53423;49.224;12.074;2023-05-07T06:23:00;97848.72;;;19.76;46.30
2841;BME280;53423;49.224;12.074;2023-05-07T06:25:28;97860.69;;;20.10;46.38
2841;BME280;53423;49.224;12.074;2023-05-07T06:27:56;97858.78;;;21.07;43.56
2841;BME280;53423;49.224;12.074;2023-05-07T06:30:24;97859.41;;;21.21;42.73
2841;BME280;53423;49.224;12.074;2023-05-07T06:32:54;97848.50;;;21.22;42.90
2841;BME280;53423;49.224;12.074;2023-05-07T06:35:22;97850.88;;;20.82;43.10
2841;BME280;53423;49.224;12.074;2023-05-07T06:37:50;97855.88;;;20.61;44.30
2841;BME280;53423;49.224;12.074;2023-05-07T06:40:18;97851.75;;;21.24;43.37
2841;BME280;53423;49.224;12.074;2023-05-07T06:42:46;97856.66;;;22.26;41.39
2841;BME280;53423;49.224;12.074;2023-05-07T06:45:14;97865.16;;;21.88;42.55
2841;BME280;53423;49.224;12.074;2023-05-07T06:47:42;97866.69;;;20.95;43.86
2841;BME280;53423;49.224;12.074;2023-05-07T06:50:11;97868.53;;;21.95;42.25
2841;BME280;53423;49.224;12.074;2023-05-07T06:52:39;97859.84;;;22.74;40.53
2841;BME280;53423;49.224;12.074;2023-05-07T06:55:08;97876.03;;;22.45;39.28
2841;BME280;53423;49.224;12.074;2023-05-07T06:57:37;97868.44;;;21.72;42.17
2841;BME280;53423;49.224;12.074;2023-05-07T07:00:06;97879.06;;;22.71;39.38
2841;BME280;53423;49.224;12.074;2023-05-07T07:02:36;97888.31;;;23.20;38.80
2841;BME280;53423;49.224;12.074;2023-05-07T07:05:05;97890.56;;;22.60;39.29
2841;BME280;53423;49.224;12.074;2023-05-07T07:07:34;97887.91;;;23.00;39.43
2841;BME280;53423;49.224;12.074;2023-05-07T07:10:02;97883.47;;;23.05;38.23
2841;BME280;53423;49.224;12.074;2023-05-07T07:12:31;97879.09;;;22.13;40.25
2841;BME280;53423;49.224;12.074;2023-05-07T07:14:59;97865.78;;;23.77;37.45
2841;BME280;53423;49.224;12.074;2023-05-07T07:17:26;97873.44;;;24.40;35.24
2841;BME280;53423;49.224;12.074;2023-05-07T07:19:55;97877.38;;;23.83;37.42
2841;BME280;53423;49.224;12.074;2023-05-07T07:22:23;97868.03;;;25.21;34.53
2841;BME280;53423;49.224;12.074;2023-05-07T07:24:52;97861.69;;;25.59;34.09
2841;BME280;53423;49.224;12.074;2023-05-07T07:27:20;97868.84;;;25.43;35.04
2841;BME280;53423;49.224;12.074;2023-05-07T07:29:47;97871.13;;;25.35;33.53
2841;BME280;53423;49.224;12.074;2023-05-07T07:32:15;97865.75;;;25.35;34.53
2841;BME280;53423;49.224;12.074;2023-05-07T07:34:43;97879.53;;;23.53;36.75
2841;BME280;53423;49.224;12.074;2023-05-07T07:37:11;97879.31;;;22.98;38.05
2841;BME280;53423;49.224;12.074;2023-05-07T07:39:39;97878.25;;;23.39;38.12
2841;BME280;53423;49.224;12.074;2023-05-07T07:42:08;97867.03;;;24.41;35.76
2841;BME280;53423;49.224;12.074;2023-05-07T07:44:36;97873.25;;;24.08;36.29
2841;BME280;53423;49.224;12.074;2023-05-07T07:47:06;97857.66;;;24.22;35.92
2841;BME280;53423;49.224;12.074;2023-05-07T07:49:34;97860.84;;;24.02;37.36
2841;BME280;53423;49.224;12.074;2023-05-07T07:52:02;97857.84;;;23.99;36.38
2841;BME280;53423;49.224;12.074;2023-05-07T07:54:30;97863.81;;;23.56;38.09
2841;BME280;53423;49.224;12.074;2023-05-07T07:56:58;97861.28;;;22.93;38.32
2841;BME280;53423;49.224;12.074;2023-05-07T07:59:27;97861.09;;;22.83;39.03
2841;BME280;53423;49.224;12.074;2023-05-07T08:01:55;97858.06;;;21.94;41.24
2841;BME280;53423;49.224;12.074;2023-05-07T08:04:23;97857.84;;;22.07;41.71
2841;BME280;53423;49.224;12.074;2023-05-07T08:06:51;97858.28;;;21.81;41.34
2841;BME280;53423;49.224;12.074;2023-05-07T08:09:20;97859.22;;;21.86;41.91
2841;BME280;53423;49.224;12.074;2023-05-07T08:11:48;97854.19;;;21.55;42.04
2841;BME280;53423;49.224;12.074;2023-05-07T08:14:16;97864.97;;;21.60;43.52
2841;BME280;53423;49.224;12.074;2023-05-07T08:16:46;97862.41;;;21.54;43.11
2841;BME280;53423;49.224;12.074;2023-05-07T08:19:14;97858.50;;;21.79;42.78
2841;BME280;53423;49.224;12.074;2023-05-07T08:21:43;97856.41;;;21.70;43.66
2841;BME280;53423;49.224;12.074;2023-05-07T08:24:10;97854.19;;;21.67;42.88
2841;BME280;53423;49.224;12.074;2023-05-07T08:26:39;97854.31;;;21.72;42.49
2841;BME280;53423;49.224;12.074;2023-05-07T08:29:07;97855.31;;;21.48;43.77
2841;BME280;53423;49.224;12.074;2023-05-07T08:31:35;97856.16;;;21.19;44.25
2841;BME280;53423;49.224;12.074;2023-05-07T08:34:04;97868.13;;;20.80;44.69
2841;BME280;53423;49.224;12.074;2023-05-07T08:36:35;97871.19;;;21.02;45.74
2841;BME280;53423;49.224;12.074;2023-05-07T08:39:03;97870.94;;;21.44;45.51
2841;BME280;53423;49.224;12.074;2023-05-07T08:41:31;97872.03;;;21.66;44.53
2841;BME280;53423;49.224;12.074;2023-05-07T08:44:02;97868.63;;;22.00;42.60
2841;BME280;53423;49.224;12.074;2023-05-07T08:46:31;97870.13;;;22.54;41.94
2841;BME280;53423;49.224;12.074;2023-05-07T08:48:59;97876.81;;;22.80;42.06
2841;BME280;53423;49.224;12.074;2023-05-07T08:51:29;97871.97;;;23.05;40.37
2841;BME280;53423;49.224;12.074;2023-05-07T08:53:57;97869.31;;;23.33;40.60
2841;BME280;53423;49.224;12.074;2023-05-07T08:56:26;97865.28;;;23.80;40.79
2841;BME280;53423;49.224;12.074;2023-05-07T08:58:54;97870.56;;;24.08;39.03
2841;BME280;53423;49.224;12.074;2023-05-07T09:01:23;97870.28;;;24.81;37.45
2841;BME280;53423;49.224;12.074;2023-05-07T09:03:53;97869.72;;;26.64;34.66
2841;BME280;53423;49.224;12.074;2023-05-07T09:06:21;97859.75;;;28.52;31.73
2841;BME280;53423;49.224;12.074;2023-05-07T09:08:52;97862.16;;;29.22;31.34
2841;BME280;53423;49.224;12.074;2023-05-07T09:11:21;97868.66;;;30.32;29.42
2841;BME280;53423;49.224;12.074;2023-05-07T09:13:53;97866.50;;;30.81;26.77
2841;BME280;53423;49.224;12.074;2023-05-07T09:16:22;97854.72;;;30.67;26.76
2841;BME280;53423;49.224;12.074;2023-05-07T09:18:51;97855.47;;;30.49;26.58
2841;BME280;53423;49.224;12.074;2023-05-07T09:21:20;97856.06;;;29.50;28.64
2841;BME280;53423;49.224;12.074;2023-05-07T09:23:52;97852.50;;;29.93;27.85
2841;BME280;53423;49.224;12.074;2023-05-07T09:26:21;97856.31;;;30.16;27.26
2841;BME280;53423;49.224;12.074;2023-05-07T09:28:49;97855.41;;;29.63;28.94
2841;BME280;53423;49.224;12.074;2023-05-07T09:31:18;97850.47;;;30.09;27.73
2841;BME280;53423;49.224;12.074;2023-05-07T09:33:47;97856.63;;;30.67;26.47
2841;BME280;53423;49.224;12.074;2023-05-07T09:36:15;97839.44;;;32.52;24.93
2841;BME280;53423;49.224;12.074;2023-05-07T09:38:43;97843.03;;;31.14;25.42
2841;BME280;53423;49.224;12.074;2023-05-07T09:41:14;97849.53;;;30.23;26.98
2841;BME280;53423;49.224;12.074;2023-05-07T09:43:42;97844.47;;;28.96;28.20
2841;BME280;53423;49.224;12.074;2023-05-07T09:46:13;97842.03;;;27.55;30.25
2841;BME280;53423;49.224;12.074;2023-05-07T09:48:43;97849.28;;;27.30;31.55
2841;BME280;53423;49.224;12.074;2023-05-07T09:51:18;97852.09;;;26.00;33.88
2841;BME280;53423;49.224;12.074;2023-05-07T09:53:50;97845.31;;;24.81;35.69
2841;BME280;53423;49.224;12.074;2023-05-07T09:56:21;97848.28;;;24.41;37.14
2841;BME280;53423;49.224;12.074;2023-05-07T09:58:52;97850.59;;;24.54;37.00
2841;BME280;53423;49.224;12.074;2023-05-07T10:01:22;97839.28;;;24.52;37.62
2841;BME280;53423;49.224;12.074;2023-05-07T10:03:51;97845.88;;;24.23;37.97
2841;BME280;53423;49.224;12.074;2023-05-07T10:06:20;97840.56;;;24.44;38.57
2841;BME280;53423;49.224;12.074;2023-05-07T10:08:51;97838.47;;;24.51;38.18
2841;BME280;53423;49.224;12.074;2023-05-07T10:11:21;97840.91;;;24.70;37.93
2841;BME280;53423;49.224;12.074;2023-05-07T10:13:49;97842.66;;;24.64;36.71
2841;BME280;53423;49.224;12.074;2023-05-07T10:16:20;97849.16;;;24.68;36.32
2841;BME280;53423;49.224;12.074;2023-05-07T10:18:49;97851.69;;;24.58;37.66
2841;BME280;53423;49.224;12.074;2023-05-07T10:21:19;97851.63;;;24.70;37.36
2841;BME280;53423;49.224;12.074;2023-05-07T10:23:50;97848.94;;;24.31;38.25
2841;BME280;53423;49.224;12.074;2023-05-07T10:26:21;97853.69;;;24.46;38.18
2841;BME280;53423;49.224;12.074;2023-05-07T10:28:55;97858.69;;;24.37;37.54
2841;BME280;53423;49.224;12.074;2023-05-07T10:31:48;97857.63;;;24.60;38.64
2841;BME280;53423;49.224;12.074;2023-05-07T10:34:21;97858.44;;;25.30;37.26
2841;BME280;53423;49.224;12.074;2023-05-07T10:36:51;97851.41;;;25.24;38.37
2841;BME280;53423;49.224;12.074;2023-05-07T10:39:20;97847.75;;;25.57;35.32
2841;BME280;53423;49.224;12.074;2023-05-07T10:41:50;97837.19;;;25.50;35.91
2841;BME280;53423;49.224;12.074;2023-05-07T10:44:27;97843.00;;;25.16;37.40
2841;BME280;53423;49.224;12.074;2023-05-07T10:47:14;97840.56;;;25.67;37.65
2841;BME280;53423;49.224;12.074;2023-05-07T10:50:20;97836.72;;;26.78;34.85
2841;BME280;53423;49.224;12.074;2023-05-07T10:53:21;97836.00;;;25.68;35.08
2841;BME280;53423;49.224;12.074;2023-05-07T10:55:51;97837.50;;;26.74;34.91
2841;BME280;53423;49.224;12.074;2023-05-07T10:58:24;97827.88;;;25.58;34.72
2841;BME280;53423;49.224;12.074;2023-05-07T11:00:59;97833.31;;;27.03;34.13
2841;BME280;53423;49.224;12.074;2023-05-07T11:03:27;97825.50;;;27.07;33.74
2841;BME280;53423;49.224;12.074;2023-05-07T11:06:09;97827.75;;;27.45;31.90
2841;BME280;53423;49.224;12.074;2023-05-07T11:08:54;97823.66;;;28.33;30.05
2841;BME280;53423;49.224;12.074;2023-05-07T11:11:45;97827.44;;;28.95;29.90
2841;BME280;53423;49.224;12.074;2023-05-07T11:14:44;97828.00;;;28.97;29.88
2841;BME280;53423;49.224;12.074;2023-05-07T11:17:12;97823.66;;;29.45;29.21
2841;BME280;53423;49.224;12.074;2023-05-07T11:19:50;97826.94;;;27.69;31.22
2841;BME280;53423;49.224;12.074;2023-05-07T11:22:37;97824.28;;;28.83;30.00
2841;BME280;53423;49.224;12.074;2023-05-07T11:25:06;97818.75;;;28.40;28.81
2841;BME280;53423;49.224;12.074;2023-05-07T11:27:34;97823.41;;;28.14;29.61
2841;BME280;53423;49.224;12.074;2023-05-07T11:30:05;97808.16;;;29.56;28.47
2841;BME280;53423;49.224;12.074;2023-05-07T11:32:33;97819.75;;;29.95;26.92
2841;BME280;53423;49.224;12.074;2023-05-07T11:35:01;97822.06;;;31.43;26.67
2841;BME280;53423;49.224;12.074;2023-05-07T11:37:29;97810.59;;;31.27;26.08
2841;BME280;53423;49.224;12.074;2023-05-07T11:40:04;97812.78;;;29.89;27.63
2841;BME280;53423;49.224;12.074;2023-05-07T11:42:34;97811.19;;;29.05;29.18
2841;BME280;53423;49.224;12.074;2023-05-07T11:45:06;97817.00;;;29.33;28.40
2841;BME280;53423;49.224;12.074;2023-05-07T11:47:35;97813.47;;;31.54;25.63
2841;BME280;53423;49.224;12.074;2023-05-07T11:50:05;97808.34;;;32.44;23.39
2841;BME280;53423;49.224;12.074;2023-05-07T11:52:34;97807.72;;;32.20;25.22
2841;BME280;53423;49.224;12.074;2023-05-07T11:55:04;97809.13;;;29.75;28.01
2841;BME280;53423;49.224;12.074;2023-05-07T11:57:33;97806.22;;;29.95;28.33
2841;BME280;53423;49.224;12.074;2023-05-07T12:00:02;97810.19;;;30.31;28.59
2841;BME280;53423;49.224;12.074;2023-05-07T12:02:33;97807.25;;;29.75;29.12
2841;BME280;53423;49.224;12.074;2023-05-07T12:05:01;97805.09;;;29.34;29.51
2841;BME280;53423;49.224;12.074;2023-05-07T12:07:30;97812.66;;;27.89;31.34
2841;BME280;53423;49.224;12.074;2023-05-07T12:10:04;97805.06;;;27.26;32.32
2841;BME280;53423;49.224;12.074;2023-05-07T12:12:38;97803.13;;;28.37;31.09
2841;BME280;53423;49.224;12.074;2023-05-07T12:15:07;97802.03;;;29.11;29.66
2841;BME280;53423;49.224;12.074;2023-05-07T12:17:37;97801.06;;;28.82;29.71
2841;BME280;53423;49.224;12.074;2023-05-07T12:20:06;97810.44;;;28.21;30.67
2841;BME280;53423;49.224;12.074;2023-05-07T12:22:35;97807.28;;;28.04;29.84
2841;BME280;53423;49.224;12.074;2023-05-07T12:25:04;97803.91;;;28.52;29.81
2841;BME280;53423;49.224;12.074;2023-05-07T12:27:36;97801.72;;;28.64;30.14
2841;BME280;53423;49.224;12.074;2023-05-07T12:30:08;97803.53;;;28.74;29.26
2841;BME280;53423;49.224;12.074;2023-05-07T12:32:38;97801.28;;;29.40;28.55
2841;BME280;53423;49.224;12.074;2023-05-07T12:35:07;97798.22;;;28.59;27.57
2841;BME280;53423;49.224;12.074;2023-05-07T12:37:36;97802.31;;;28.36;28.86
2841;BME280;53423;49.224;12.074;2023-05-07T12:40:04;97796.34;;;28.54;29.14
2841;BME280;53423;49.224;12.074;2023-05-07T12:42:35;97796.38;;;29.03;29.53
2841;BME280;53423;49.224;12.074;2023-05-07T12:45:10;97791.78;;;29.42;28.29
2841;BME280;53423;49.224;12.074;2023-05-07T12:47:44;97777.31;;;29.28;28.95
2841;BME280;53423;49.224;12.074;2023-05-07T12:50:12;97779.94;;;28.94;28.78
2841;BME280;53423;49.224;12.074;2023-05-07T12:52:40;97781.03;;;28.88;28.26
2841;BME280;53423;49.224;12.074;2023-05-07T12:55:09;97771.19;;;29.51;27.70
2841;BME280;53423;49.224;12.074;2023-05-07T12:57:38;97773.13;;;29.46;27.75
2841;BME280;53423;49.224;12.074;2023-05-07T13:00:08;97770.44;;;29.41;26.41
2841;BME280;53423;49.224;12.074;2023-05-07T13:02:38;97774.25;;;28.96;27.28
2841;BME280;53423;49.224;12.074;2023-05-07T13:05:08;97767.47;;;29.76;26.87
2841;BME280;53423;49.224;12.074;2023-05-07T13:07:36;97768.72;;;28.77;27.85
2841;BME280;53423;49.224;12.074;2023-05-07T13:10:05;97767.38;;;28.70;27.87
2841;BME280;53423;49.224;12.074;2023-05-07T13:12:34;97765.59;;;28.45;28.54